sensor_id;sensor_type;location;lat;lon;timestamp;P1;durP1;ratioP1;P2;durP2;ratioP2
62123;SDS011;48110;47.532;19.078;2023-09-07T00:02:37;10.18;;;3.78;;
62123;SDS011;48110;47.532;19.078;2023-09-07T00:05:44;8.60;;;3.78;;
62123;SDS011;48110;47.532;19.078;2023-09-07T00:08:47;7.93;;;3.92;;
62123;SDS011;48110;47.532;19.078;2023-09-07T00:11:50;8.85;;;3.90;;
62123;SDS011;48110;47.532;19.078;2023-09-07T00:14:53;6.18;;;3.90;;
62123;SDS011;48110;47.532;19.078;2023-09-07T00:17:57;5.45;;;3.45;;
62123;SDS011;48110;47.532;19.078;2023-09-07T00:21:00;6.90;;;3.75;;
62123;SDS011;48110;47.532;19.078;2023-09-07T00:24:03;7.00;;;3.70;;
62123;SDS011;48110;47.532;19.078;2023-09-07T00:27:07;8.13;;;3.75;;
62123;SDS011;48110;47.532;19.078;2023-09-07T00:30:11;6.60;;;4.10;;
62123;SDS011;48110;47.532;19.078;2023-09-07T00:33:14;7.00;;;3.97;;
62123;SDS011;48110;47.532;19.078;2023-09-07T00:36:17;6.35;;;3.67;;
62123;SDS011;48110;47.532;19.078;2023-09-07T00:39:20;6.90;;;3.90;;
62123;SDS011;48110;47.532;19.078;2023-09-07T00:42:23;4.80;;;3.20;;
62123;SDS011;48110;47.532;19.078;2023-09-07T00:45:26;4.55;;;3.53;;
62123;SDS011;48110;47.532;19.078;2023-09-07T00:48:29;5.75;;;3.80;;
62123;SDS011;48110;47.532;19.078;2023-09-07T00:51:33;5.93;;;3.67;;
62123;SDS011;48110;47.532;19.078;2023-09-07T00:54:36;5.00;;;4.00;;
62123;SDS011;48110;47.532;19.078;2023-09-07T00:57:40;7.05;;;3.90;;
62123;SDS011;48110;47.532;19.078;2023-09-07T01:00:45;5.43;;;3.67;;
62123;SDS011;48110;47.532;19.078;2023-09-07T01:03:50;4.97;;;3.37;;
62123;SDS011;48110;47.532;19.078;2023-09-07T01:06:57;5.30;;;3.80;;
62123;SDS011;48110;47.532;19.078;2023-09-07T01:10:05;5.70;;;3.85;;
62123;SDS011;48110;47.532;19.078;2023-09-07T01:13:10;5.47;;;3.80;;
62123;SDS011;48110;47.532;19.078;2023-09-07T01:16:12;7.28;;;3.75;;
62123;SDS011;48110;47.532;19.078;2023-09-07T01:19:16;6.07;;;3.75;;
62123;SDS011;48110;47.532;19.078;2023-09-07T01:22:19;6.93;;;3.78;;
62123;SDS011;48110;47.532;19.078;2023-09-07T01:25:25;8.48;;;4.37;;
62123;SDS011;48110;47.532;19.078;2023-09-07T01:28:31;10.00;;;4.37;;
62123;SDS011;48110;47.532;19.078;2023-09-07T01:31:35;5.85;;;3.83;;
62123;SDS011;48110;47.532;19.078;2023-09-07T01:34:39;5.20;;;3.90;;
62123;SDS011;48110;47.532;19.078;2023-09-07T01:37:43;4.70;;;3.78;;
62123;SDS011;48110;47.532;19.078;2023-09-07T01:40:46;5.20;;;3.95;;
62123;SDS011;48110;47.532;19.078;2023-09-07T01:43:49;6.50;;;3.90;;
62123;SDS011;48110;47.532;19.078;2023-09-07T01:46:54;5.80;;;3.53;;
62123;SDS011;48110;47.532;19.078;2023-09-07T01:49:57;6.72;;;3.60;;
62123;SDS011;48110;47.532;19.078;2023-09-07T01:53:00;5.45;;;3.70;;
62123;SDS011;48110;47.532;19.078;2023-09-07T01:56:03;5.95;;;3.80;;
62123;SDS011;48110;47.532;19.078;2023-09-07T01:59:06;4.75;;;3.75;;
62123;SDS011;48110;47.532;19.078;2023-09-07T02:02:10;6.80;;;4.07;;
62123;SDS011;48110;47.532;19.078;2023-09-07T02:05:15;5.15;;;3.70;;
62123;SDS011;48110;47.532;19.078;2023-09-07T02:08:19;8.80;;;4.15;;
62123;SDS011;48110;47.532;19.078;2023-09-07T02:11:23;6.87;;;3.65;;
62123;SDS011;48110;47.532;19.078;2023-09-07T02:14:26;6.25;;;3.50;;
62123;SDS011;48110;47.532;19.078;2023-09-07T02:17:29;6.30;;;4.00;;
62123;SDS011;48110;47.532;19.078;2023-09-07T02:20:32;8.40;;;4.28;;
62123;SDS011;48110;47.532;19.078;2023-09-07T02:23:36;8.02;;;4.37;;
62123;SDS011;48110;47.532;19.078;2023-09-07T02:26:42;6.65;;;4.05;;
62123;SDS011;48110;47.532;19.078;2023-09-07T02:29:48;4.60;;;3.70;;
62123;SDS011;48110;47.532;19.078;2023-09-07T02:32:51;6.05;;;3.90;;
62123;SDS011;48110;47.532;19.078;2023-09-07T02:35:54;7.53;;;4.40;;
62123;SDS011;48110;47.532;19.078;2023-09-07T02:38:57;6.05;;;4.00;;
62123;SDS011;48110;47.532;19.078;2023-09-07T02:42:00;8.43;;;4.45;;
62123;SDS011;48110;47.532;19.078;2023-09-07T02:45:02;6.62;;;4.10;;
62123;SDS011;48110;47.532;19.078;2023-09-07T02:48:06;5.37;;;4.03;;
62123;SDS011;48110;47.532;19.078;2023-09-07T02:51:09;6.72;;;4.30;;
62123;SDS011;48110;47.532;19.078;2023-09-07T02:54:13;5.03;;;3.97;;
62123;SDS011;48110;47.532;19.078;2023-09-07T02:57:15;6.70;;;4.37;;
62123;SDS011;48110;47.532;19.078;2023-09-07T03:00:19;8.73;;;4.05;;
62123;SDS011;48110;47.532;19.078;2023-09-07T03:03:22;8.30;;;4.53;;
62123;SDS011;48110;47.532;19.078;2023-09-07T03:06:27;8.15;;;4.00;;
62123;SDS011;48110;47.532;19.078;2023-09-07T03:09:29;7.00;;;4.55;;
62123;SDS011;48110;47.532;19.078;2023-09-07T03:12:33;6.40;;;4.35;;
62123;SDS011;48110;47.532;19.078;2023-09-07T03:15:36;6.68;;;4.37;;
62123;SDS011;48110;47.532;19.078;2023-09-07T03:18:40;6.18;;;4.45;;
62123;SDS011;48110;47.532;19.078;2023-09-07T03:21:42;7.68;;;4.22;;
62123;SDS011;48110;47.532;19.078;2023-09-07T03:24:46;8.75;;;4.32;;
62123;SDS011;48110;47.532;19.078;2023-09-07T03:27:49;6.03;;;4.20;;
62123;SDS011;48110;47.532;19.078;2023-09-07T03:30:54;5.82;;;4.50;;
62123;SDS011;48110;47.532;19.078;2023-09-07T03:33:57;5.68;;;4.35;;
62123;SDS011;48110;47.532;19.078;2023-09-07T03:37:01;7.65;;;4.60;;
62123;SDS011;48110;47.532;19.078;2023-09-07T03:40:04;6.43;;;4.25;;
62123;SDS011;48110;47.532;19.078;2023-09-07T03:43:09;8.15;;;4.70;;
62123;SDS011;48110;47.532;19.078;2023-09-07T03:46:12;6.50;;;4.80;;
62123;SDS011;48110;47.532;19.078;2023-09-07T03:49:16;6.60;;;4.70;;
62123;SDS011;48110;47.532;19.078;2023-09-07T03:52:20;6.60;;;4.80;;
62123;SDS011;48110;47.532;19.078;2023-09-07T03:55:26;5.93;;;4.50;;
62123;SDS011;48110;47.532;19.078;2023-09-07T03:58:29;6.65;;;4.78;;
62123;SDS011;48110;47.532;19.078;2023-09-07T04:01:33;8.18;;;4.60;;
62123;SDS011;48110;47.532;19.078;2023-09-07T04:04:36;7.70;;;4.87;;
62123;SDS011;48110;47.532;19.078;2023-09-07T04:07:39;6.70;;;4.60;;
62123;SDS011;48110;47.532;19.078;2023-09-07T04:10:42;7.55;;;4.95;;
62123;SDS011;48110;47.532;19.078;2023-09-07T04:13:45;8.88;;;4.80;;
62123;SDS011;48110;47.532;19.078;2023-09-07T04:16:49;7.32;;;4.97;;
62123;SDS011;48110;47.532;19.078;2023-09-07T04:19:53;6.12;;;4.70;;
62123;SDS011;48110;47.532;19.078;2023-09-07T04:22:56;10.30;;;4.82;;
62123;SDS011;48110;47.532;19.078;2023-09-07T04:26:09;10.35;;;4.70;;
62123;SDS011;48110;47.532;19.078;2023-09-07T04:29:13;12.98;;;5.68;;
62123;SDS011;48110;47.532;19.078;2023-09-07T04:32:16;11.50;;;4.70;;
62123;SDS011;48110;47.532;19.078;2023-09-07T04:35:19;10.45;;;5.22;;
62123;SDS011;48110;47.532;19.078;2023-09-07T04:38:21;13.02;;;5.65;;
62123;SDS011;48110;47.532;19.078;2023-09-07T04:41:24;10.82;;;5.90;;
62123;SDS011;48110;47.532;19.078;2023-09-07T04:44:27;11.15;;;4.97;;
62123;SDS011;48110;47.532;19.078;2023-09-07T04:47:31;8.40;;;5.15;;
62123;SDS011;48110;47.532;19.078;2023-09-07T04:50:34;9.07;;;4.95;;
62123;SDS011;48110;47.532;19.078;2023-09-07T04:53:38;8.50;;;4.78;;
62123;SDS011;48110;47.532;19.078;2023-09-07T04:56:41;10.60;;;4.78;;
62123;SDS011;48110;47.532;19.078;2023-09-07T04:59:44;16.27;;;4.97;;
62123;SDS011;48110;47.532;19.078;2023-09-07T05:02:48;10.05;;;5.28;;
62123;SDS011;48110;47.532;19.078;2023-09-07T05:05:52;10.75;;;5.12;;
62123;SDS011;48110;47.532;19.078;2023-09-07T05:08:56;8.43;;;5.18;;
62123;SDS011;48110;47.532;19.078;2023-09-07T05:11:59;9.52;;;4.95;;
62123;SDS011;48110;47.532;19.078;2023-09-07T05:15:01;12.95;;;5.20;;
62123;SDS011;48110;47.532;19.078;2023-09-07T05:18:05;8.07;;;4.90;;
62123;SDS011;48110;47.532;19.078;2023-09-07T05:21:14;9.55;;;4.85;;
62123;SDS011;48110;47.532;19.078;2023-09-07T05:24:18;7.00;;;4.57;;
62123;SDS011;48110;47.532;19.078;2023-09-07T05:27:20;9.63;;;4.75;;
62123;SDS011;48110;47.532;19.078;2023-09-07T05:30:24;8.85;;;4.47;;
62123;SDS011;48110;47.532;19.078;2023-09-07T05:33:27;7.72;;;4.85;;
62123;SDS011;48110;47.532;19.078;2023-09-07T05:36:30;9.18;;;4.40;;
62123;SDS011;48110;47.532;19.078;2023-09-07T05:39:33;10.40;;;4.70;;
62123;SDS011;48110;47.532;19.078;2023-09-07T05:42:36;8.38;;;4.72;;
62123;SDS011;48110;47.532;19.078;2023-09-07T05:45:40;8.25;;;4.60;;
62123;SDS011;48110;47.532;19.078;2023-09-07T05:48:43;12.15;;;4.82;;
62123;SDS011;48110;47.532;19.078;2023-09-07T05:51:46;10.15;;;4.47;;
62123;SDS011;48110;47.532;19.078;2023-09-07T05:54:50;8.68;;;4.70;;
62123;SDS011;48110;47.532;19.078;2023-09-07T05:57:56;8.38;;;4.37;;
62123;SDS011;48110;47.532;19.078;2023-09-07T06:01:00;11.35;;;4.30;;
62123;SDS011;48110;47.532;19.078;2023-09-07T06:04:03;9.57;;;4.97;;
62123;SDS011;48110;47.532;19.078;2023-09-07T06:07:07;13.15;;;4.87;;
62123;SDS011;48110;47.532;19.078;2023-09-07T06:10:10;12.40;;;4.57;;
62123;SDS011;48110;47.532;19.078;2023-09-07T06:13:13;10.15;;;4.47;;
62123;SDS011;48110;47.532;19.078;2023-09-07T06:16:16;9.82;;;5.00;;
62123;SDS011;48110;47.532;19.078;2023-09-07T06:19:19;10.55;;;5.00;;
62123;SDS011;48110;47.532;19.078;2023-09-07T06:22:22;10.48;;;4.87;;
62123;SDS011;48110;47.532;19.078;2023-09-07T06:25:26;14.48;;;4.57;;
62123;SDS011;48110;47.532;19.078;2023-09-07T06:28:30;12.98;;;4.85;;
62123;SDS011;48110;47.532;19.078;2023-09-07T06:31:33;11.93;;;4.70;;
62123;SDS011;48110;47.532;19.078;2023-09-07T06:34:36;13.60;;;4.55;;
62123;SDS011;48110;47.532;19.078;2023-09-07T06:37:39;10.52;;;4.45;;
62123;SDS011;48110;47.532;19.078;2023-09-07T06:40:48;11.27;;;4.95;;
62123;SDS011;48110;47.532;19.078;2023-09-07T06:43:52;8.20;;;4.12;;
62123;SDS011;48110;47.532;19.078;2023-09-07T06:46:55;13.15;;;3.95;;
62123;SDS011;48110;47.532;19.078;2023-09-07T06:49:58;10.65;;;4.43;;
62123;SDS011;48110;47.532;19.078;2023-09-07T06:53:02;7.32;;;4.03;;
62123;SDS011;48110;47.532;19.078;2023-09-07T06:56:05;11.10;;;4.75;;
62123;SDS011;48110;47.532;19.078;2023-09-07T06:59:09;9.45;;;3.87;;
62123;SDS011;48110;47.532;19.078;2023-09-07T07:02:12;9.63;;;3.87;;
62123;SDS011;48110;47.532;19.078;2023-09-07T07:05:15;11.27;;;4.60;;
62123;SDS011;48110;47.532;19.078;2023-09-07T07:08:18;8.68;;;4.00;;
62123;SDS011;48110;47.532;19.078;2023-09-07T07:11:21;15.02;;;4.03;;
62123;SDS011;48110;47.532;19.078;2023-09-07T07:14:24;9.90;;;3.78;;
62123;SDS011;48110;47.532;19.078;2023-09-07T07:17:27;8.50;;;3.85;;
62123;SDS011;48110;47.532;19.078;2023-09-07T07:20:30;10.65;;;3.75;;
62123;SDS011;48110;47.532;19.078;2023-09-07T07:23:33;10.77;;;3.92;;
62123;SDS011;48110;47.532;19.078;2023-09-07T07:26:37;8.77;;;4.00;;
62123;SDS011;48110;47.532;19.078;2023-09-07T07:29:40;20.35;;;4.12;;
62123;SDS011;48110;47.532;19.078;2023-09-07T07:32:43;9.68;;;4.03;;
62123;SDS011;48110;47.532;19.078;2023-09-07T07:35:46;20.62;;;4.03;;
62123;SDS011;48110;47.532;19.078;2023-09-07T07:38:49;34.47;;;4.87;;
62123;SDS011;48110;47.532;19.078;2023-09-07T07:41:53;7.78;;;3.58;;
62123;SDS011;48110;47.532;19.078;2023-09-07T07:44:56;13.35;;;4.00;;
62123;SDS011;48110;47.532;19.078;2023-09-07T07:47:59;10.20;;;4.10;;
62123;SDS011;48110;47.532;19.078;2023-09-07T07:51:03;13.10;;;3.75;;
62123;SDS011;48110;47.532;19.078;2023-09-07T07:54:10;11.45;;;3.97;;
62123;SDS011;48110;47.532;19.078;2023-09-07T07:57:13;10.50;;;4.18;;
62123;SDS011;48110;47.532;19.078;2023-09-07T08:00:16;12.30;;;3.55;;
62123;SDS011;48110;47.532;19.078;2023-09-07T08:03:20;11.30;;;4.10;;
62123;SDS011;48110;47.532;19.078;2023-09-07T08:06:24;7.50;;;3.45;;
62123;SDS011;48110;47.532;19.078;2023-09-07T08:09:27;16.20;;;4.60;;
62123;SDS011;48110;47.532;19.078;2023-09-07T08:12:30;16.62;;;3.62;;
62123;SDS011;48110;47.532;19.078;2023-09-07T08:15:33;10.20;;;3.45;;
62123;SDS011;48110;47.532;19.078;2023-09-07T08:18:37;19.08;;;3.60;;
62123;SDS011;48110;47.532;19.078;2023-09-07T08:21:41;12.35;;;3.62;;
62123;SDS011;48110;47.532;19.078;2023-09-07T08:24:44;7.75;;;3.62;;
62123;SDS011;48110;47.532;19.078;2023-09-07T08:27:50;9.30;;;3.42;;
62123;SDS011;48110;47.532;19.078;2023-09-07T08:30:53;12.68;;;3.83;;
62123;SDS011;48110;47.532;19.078;2023-09-07T08:33:58;10.90;;;3.47;;
62123;SDS011;48110;47.532;19.078;2023-09-07T08:37:02;21.52;;;4.07;;
62123;SDS011;48110;47.532;19.078;2023-09-07T08:40:08;6.15;;;3.70;;
62123;SDS011;48110;47.532;19.078;2023-09-07T08:43:11;14.80;;;3.97;;
62123;SDS011;48110;47.532;19.078;2023-09-07T08:46:19;8.60;;;3.55;;
62123;SDS011;48110;47.532;19.078;2023-09-07T08:49:25;69.75;;;5.80;;
62123;SDS011;48110;47.532;19.078;2023-09-07T08:52:29;7.50;;;3.40;;
62123;SDS011;48110;47.532;19.078;2023-09-07T08:55:32;5.10;;;3.22;;
62123;SDS011;48110;47.532;19.078;2023-09-07T08:58:36;12.57;;;3.60;;
62123;SDS011;48110;47.532;19.078;2023-09-07T09:01:39;5.70;;;3.20;;
62123;SDS011;48110;47.532;19.078;2023-09-07T09:04:42;6.93;;;3.25;;
62123;SDS011;48110;47.532;19.078;2023-09-07T09:07:45;7.22;;;3.45;;
62123;SDS011;48110;47.532;19.078;2023-09-07T09:10:47;9.30;;;3.47;;
62123;SDS011;48110;47.532;19.078;2023-09-07T09:13:51;7.55;;;3.50;;
62123;SDS011;48110;47.532;19.078;2023-09-07T09:16:55;7.90;;;3.50;;
62123;SDS011;48110;47.532;19.078;2023-09-07T09:19:58;5.12;;;3.33;;
62123;SDS011;48110;47.532;19.078;2023-09-07T09:23:03;7.45;;;3.70;;
62123;SDS011;48110;47.532;19.078;2023-09-07T09:26:07;6.82;;;3.37;;
62123;SDS011;48110;47.532;19.078;2023-09-07T09:29:10;9.60;;;3.50;;
62123;SDS011;48110;47.532;19.078;2023-09-07T09:32:14;5.65;;;3.78;;
62123;SDS011;48110;47.532;19.078;2023-09-07T09:35:17;10.80;;;3.80;;
62123;SDS011;48110;47.532;19.078;2023-09-07T09:38:26;7.43;;;3.50;;
62123;SDS011;48110;47.532;19.078;2023-09-07T09:41:30;12.10;;;3.87;;
62123;SDS011;48110;47.532;19.078;2023-09-07T09:44:36;10.35;;;3.58;;
62123;SDS011;48110;47.532;19.078;2023-09-07T09:47:41;4.82;;;3.15;;
62123;SDS011;48110;47.532;19.078;2023-09-07T09:50:46;10.05;;;3.40;;
62123;SDS011;48110;47.532;19.078;2023-09-07T09:53:53;3.80;;;3.20;;
62123;SDS011;48110;47.532;19.078;2023-09-07T09:56:56;6.40;;;3.35;;
62123;SDS011;48110;47.532;19.078;2023-09-07T10:00:00;7.47;;;3.30;;
62123;SDS011;48110;47.532;19.078;2023-09-07T10:06:28;7.37;;;3.20;;
62123;SDS011;48110;47.532;19.078;2023-09-07T10:09:32;5.82;;;3.35;;
62123;SDS011;48110;47.532;19.078;2023-09-07T10:12:40;7.15;;;3.10;;
62123;SDS011;48110;47.532;19.078;2023-09-07T10:15:50;5.50;;;3.20;;
62123;SDS011;48110;47.532;19.078;2023-09-07T10:19:03;6.85;;;4.47;;
62123;SDS011;48110;47.532;19.078;2023-09-07T10:22:20;7.93;;;3.00;;
62123;SDS011;48110;47.532;19.078;2023-09-07T10:25:26;6.57;;;3.17;;
62123;SDS011;48110;47.532;19.078;2023-09-07T10:28:32;6.12;;;3.30;;
62123;SDS011;48110;47.532;19.078;2023-09-07T10:31:36;5.18;;;3.12;;
62123;SDS011;48110;47.532;19.078;2023-09-07T10:34:55;7.37;;;3.50;;
62123;SDS011;48110;47.532;19.078;2023-09-07T10:37:58;6.87;;;3.40;;
62123;SDS011;48110;47.532;19.078;2023-09-07T10:41:02;5.07;;;3.33;;
62123;SDS011;48110;47.532;19.078;2023-09-07T10:44:07;5.22;;;3.03;;
62123;SDS011;48110;47.532;19.078;2023-09-07T10:47:10;5.00;;;3.08;;
62123;SDS011;48110;47.532;19.078;2023-09-07T10:50:13;6.43;;;2.90;;
62123;SDS011;48110;47.532;19.078;2023-09-07T10:53:24;5.45;;;2.90;;
62123;SDS011;48110;47.532;19.078;2023-09-07T10:56:32;5.60;;;2.90;;
62123;SDS011;48110;47.532;19.078;2023-09-07T10:59:35;7.28;;;2.92;;
62123;SDS011;48110;47.532;19.078;2023-09-07T11:02:38;6.35;;;2.45;;
62123;SDS011;48110;47.532;19.078;2023-09-07T11:05:41;5.18;;;2.95;;
62123;SDS011;48110;47.532;19.078;2023-09-07T11:08:46;6.90;;;2.75;;
62123;SDS011;48110;47.532;19.078;2023-09-07T11:11:49;3.80;;;2.55;;
62123;SDS011;48110;47.532;19.078;2023-09-07T11:14:53;5.35;;;2.47;;
62123;SDS011;48110;47.532;19.078;2023-09-07T11:17:56;4.15;;;2.70;;
62123;SDS011;48110;47.532;19.078;2023-09-07T11:21:00;7.00;;;2.58;;
62123;SDS011;48110;47.532;19.078;2023-09-07T11:24:05;2.97;;;2.50;;
62123;SDS011;48110;47.532;19.078;2023-09-07T11:27:08;3.03;;;2.37;;
62123;SDS011;48110;47.532;19.078;2023-09-07T11:30:11;5.03;;;2.85;;
62123;SDS011;48110;47.532;19.078;2023-09-07T11:33:15;4.18;;;2.65;;
62123;SDS011;48110;47.532;19.078;2023-09-07T11:36:19;4.57;;;2.78;;
62123;SDS011;48110;47.532;19.078;2023-09-07T11:39:26;3.50;;;2.60;;
62123;SDS011;48110;47.532;19.078;2023-09-07T11:42:29;4.57;;;2.45;;
62123;SDS011;48110;47.532;19.078;2023-09-07T11:45:32;6.30;;;2.90;;
62123;SDS011;48110;47.532;19.078;2023-09-07T11:48:34;4.80;;;2.50;;
62123;SDS011;48110;47.532;19.078;2023-09-07T11:51:37;6.43;;;2.60;;
62123;SDS011;48110;47.532;19.078;2023-09-07T11:54:40;5.12;;;2.50;;
62123;SDS011;48110;47.532;19.078;2023-09-07T11:57:43;3.08;;;2.40;;
62123;SDS011;48110;47.532;19.078;2023-09-07T12:00:47;6.85;;;2.80;;
62123;SDS011;48110;47.532;19.078;2023-09-07T12:03:50;4.03;;;2.58;;
62123;SDS011;48110;47.532;19.078;2023-09-07T12:06:53;5.35;;;2.80;;
62123;SDS011;48110;47.532;19.078;2023-09-07T12:09:56;6.80;;;3.28;;
62123;SDS011;48110;47.532;19.078;2023-09-07T12:12:59;5.43;;;2.85;;
62123;SDS011;48110;47.532;19.078;2023-09-07T12:16:02;6.78;;;2.53;;
62123;SDS011;48110;47.532;19.078;2023-09-07T12:19:06;5.47;;;2.70;;
62123;SDS011;48110;47.532;19.078;2023-09-07T12:22:09;7.05;;;2.72;;
62123;SDS011;48110;47.532;19.078;2023-09-07T12:25:11;3.85;;;2.75;;
62123;SDS011;48110;47.532;19.078;2023-09-07T12:28:21;4.72;;;2.62;;
62123;SDS011;48110;47.532;19.078;2023-09-07T12:31:27;5.72;;;2.72;;
62123;SDS011;48110;47.532;19.078;2023-09-07T12:34:30;5.28;;;2.67;;
62123;SDS011;48110;47.532;19.078;2023-09-07T12:37:37;4.37;;;2.67;;
62123;SDS011;48110;47.532;19.078;2023-09-07T12:40:40;7.10;;;2.70;;
62123;SDS011;48110;47.532;19.078;2023-09-07T12:43:43;5.05;;;2.35;;
62123;SDS011;48110;47.532;19.078;2023-09-07T12:46:46;4.43;;;2.62;;
62123;SDS011;48110;47.532;19.078;2023-09-07T12:49:50;4.53;;;2.60;;
62123;SDS011;48110;47.532;19.078;2023-09-07T12:52:54;7.32;;;2.72;;
62123;SDS011;48110;47.532;19.078;2023-09-07T12:55:56;3.42;;;2.67;;
62123;SDS011;48110;47.532;19.078;2023-09-07T12:59:00;5.03;;;2.78;;
62123;SDS011;48110;47.532;19.078;2023-09-07T13:02:03;5.47;;;2.55;;
62123;SDS011;48110;47.532;19.078;2023-09-07T13:05:06;11.38;;;3.17;;
62123;SDS011;48110;47.532;19.078;2023-09-07T13:08:10;7.15;;;2.70;;
62123;SDS011;48110;47.532;19.078;2023-09-07T13:11:16;5.30;;;3.15;;
62123;SDS011;48110;47.532;19.078;2023-09-07T13:14:20;7.65;;;2.75;;
62123;SDS011;48110;47.532;19.078;2023-09-07T13:17:35;3.72;;;2.97;;
62123;SDS011;48110;47.532;19.078;2023-09-07T13:20:39;4.07;;;2.80;;
62123;SDS011;48110;47.532;19.078;2023-09-07T13:23:42;4.03;;;2.75;;
62123;SDS011;48110;47.532;19.078;2023-09-07T13:26:48;8.27;;;2.90;;
62123;SDS011;48110;47.532;19.078;2023-09-07T13:29:54;12.77;;;3.20;;
62123;SDS011;48110;47.532;19.078;2023-09-07T13:32:57;5.50;;;2.75;;
62123;SDS011;48110;47.532;19.078;2023-09-07T13:36:03;7.75;;;3.00;;
62123;SDS011;48110;47.532;19.078;2023-09-07T13:39:08;6.20;;;2.90;;
62123;SDS011;48110;47.532;19.078;2023-09-07T13:42:14;7.72;;;2.80;;
62123;SDS011;48110;47.532;19.078;2023-09-07T13:45:17;7.40;;;2.80;;
62123;SDS011;48110;47.532;19.078;2023-09-07T13:48:20;6.57;;;3.00;;
62123;SDS011;48110;47.532;19.078;2023-09-07T13:51:23;8.27;;;2.80;;
62123;SDS011;48110;47.532;19.078;2023-09-07T13:54:27;6.55;;;2.83;;
62123;SDS011;48110;47.532;19.078;2023-09-07T13:57:33;10.85;;;2.70;;
62123;SDS011;48110;47.532;19.078;2023-09-07T14:00:38;7.87;;;2.85;;
62123;SDS011;48110;47.532;19.078;2023-09-07T14:03:41;4.20;;;2.62;;
62123;SDS011;48110;47.532;19.078;2023-09-07T14:06:45;8.15;;;3.45;;
62123;SDS011;48110;47.532;19.078;2023-09-07T14:09:49;6.53;;;3.58;;
62123;SDS011;48110;47.532;19.078;2023-09-07T14:12:52;6.32;;;3.12;;
62123;SDS011;48110;47.532;19.078;2023-09-07T14:15:56;10.98;;;2.92;;
62123;SDS011;48110;47.532;19.078;2023-09-07T14:18:59;34.40;;;3.55;;
62123;SDS011;48110;47.532;19.078;2023-09-07T14:22:03;5.35;;;3.08;;
62123;SDS011;48110;47.532;19.078;2023-09-07T14:25:06;5.90;;;3.40;;
62123;SDS011;48110;47.532;19.078;2023-09-07T14:28:13;10.70;;;3.55;;
62123;SDS011;48110;47.532;19.078;2023-09-07T14:31:16;21.83;;;3.83;;
62123;SDS011;48110;47.532;19.078;2023-09-07T14:34:20;9.23;;;3.37;;
62123;SDS011;48110;47.532;19.078;2023-09-07T14:37:22;15.25;;;3.90;;
62123;SDS011;48110;47.532;19.078;2023-09-07T14:40:26;8.93;;;3.42;;
62123;SDS011;48110;47.532;19.078;2023-09-07T14:43:29;7.68;;;3.45;;
62123;SDS011;48110;47.532;19.078;2023-09-07T14:46:32;5.43;;;3.05;;
62123;SDS011;48110;47.532;19.078;2023-09-07T14:49:35;6.80;;;3.65;;
62123;SDS011;48110;47.532;19.078;2023-09-07T14:52:39;7.32;;;3.45;;
62123;SDS011;48110;47.532;19.078;2023-09-07T14:55:44;6.97;;;3.80;;
62123;SDS011;48110;47.532;19.078;2023-09-07T14:58:47;6.18;;;3.45;;
62123;SDS011;48110;47.532;19.078;2023-09-07T15:01:50;14.13;;;3.70;;
62123;SDS011;48110;47.532;19.078;2023-09-07T15:05:05;9.50;;;3.95;;
62123;SDS011;48110;47.532;19.078;2023-09-07T15:08:08;5.85;;;3.33;;
62123;SDS011;48110;47.532;19.078;2023-09-07T15:11:11;4.35;;;3.47;;
62123;SDS011;48110;47.532;19.078;2023-09-07T15:14:16;5.25;;;3.53;;
62123;SDS011;48110;47.532;19.078;2023-09-07T15:17:19;9.07;;;3.50;;
62123;SDS011;48110;47.532;19.078;2023-09-07T15:20:22;5.18;;;3.62;;
62123;SDS011;48110;47.532;19.078;2023-09-07T15:23:25;14.87;;;3.70;;
62123;SDS011;48110;47.532;19.078;2023-09-07T15:26:39;6.70;;;4.03;;
62123;SDS011;48110;47.532;19.078;2023-09-07T15:29:43;8.23;;;3.70;;
62123;SDS011;48110;47.532;19.078;2023-09-07T15:32:46;6.20;;;3.60;;
62123;SDS011;48110;47.532;19.078;2023-09-07T15:35:50;9.88;;;3.50;;
62123;SDS011;48110;47.532;19.078;2023-09-07T15:38:53;5.37;;;3.65;;
62123;SDS011;48110;47.532;19.078;2023-09-07T15:41:57;8.65;;;3.60;;
62123;SDS011;48110;47.532;19.078;2023-09-07T15:45:00;5.60;;;3.45;;
62123;SDS011;48110;47.532;19.078;2023-09-07T15:48:03;4.80;;;3.50;;
62123;SDS011;48110;47.532;19.078;2023-09-07T15:51:06;5.72;;;3.42;;
62123;SDS011;48110;47.532;19.078;2023-09-07T15:54:10;10.43;;;3.75;;
62123;SDS011;48110;47.532;19.078;2023-09-07T15:57:13;6.15;;;3.80;;
62123;SDS011;48110;47.532;19.078;2023-09-07T16:00:16;10.38;;;3.40;;
62123;SDS011;48110;47.532;19.078;2023-09-07T16:03:19;4.70;;;3.20;;
62123;SDS011;48110;47.532;19.078;2023-09-07T16:06:22;8.00;;;3.60;;
62123;SDS011;48110;47.532;19.078;2023-09-07T16:09:25;8.38;;;3.70;;
62123;SDS011;48110;47.532;19.078;2023-09-07T16:12:30;6.78;;;3.28;;
62123;SDS011;48110;47.532;19.078;2023-09-07T16:15:32;7.43;;;3.62;;
62123;SDS011;48110;47.532;19.078;2023-09-07T16:18:35;9.07;;;3.87;;
62123;SDS011;48110;47.532;19.078;2023-09-07T16:21:39;5.90;;;3.75;;
62123;SDS011;48110;47.532;19.078;2023-09-07T16:24:41;4.87;;;3.62;;
62123;SDS011;48110;47.532;19.078;2023-09-07T16:27:44;6.45;;;3.60;;
62123;SDS011;48110;47.532;19.078;2023-09-07T16:30:50;9.18;;;3.55;;
62123;SDS011;48110;47.532;19.078;2023-09-07T16:33:53;6.20;;;3.60;;
62123;SDS011;48110;47.532;19.078;2023-09-07T16:36:56;7.57;;;3.80;;
62123;SDS011;48110;47.532;19.078;2023-09-07T16:39:59;7.50;;;3.78;;
62123;SDS011;48110;47.532;19.078;2023-09-07T16:43:02;7.97;;;4.32;;
62123;SDS011;48110;47.532;19.078;2023-09-07T16:46:05;9.52;;;3.83;;
62123;SDS011;48110;47.532;19.078;2023-09-07T16:49:08;8.13;;;3.95;;
62123;SDS011;48110;47.532;19.078;2023-09-07T16:52:12;10.05;;;4.15;;
62123;SDS011;48110;47.532;19.078;2023-09-07T16:55:15;13.65;;;4.07;;
62123;SDS011;48110;47.532;19.078;2023-09-07T16:58:18;22.62;;;4.10;;
62123;SDS011;48110;47.532;19.078;2023-09-07T17:01:23;10.20;;;4.32;;
62123;SDS011;48110;47.532;19.078;2023-09-07T17:04:30;6.95;;;4.40;;
62123;SDS011;48110;47.532;19.078;2023-09-07T17:07:34;13.05;;;4.30;;
62123;SDS011;48110;47.532;19.078;2023-09-07T17:10:37;14.90;;;4.95;;
62123;SDS011;48110;47.532;19.078;2023-09-07T17:13:40;12.48;;;4.43;;
62123;SDS011;48110;47.532;19.078;2023-09-07T17:16:57;15.80;;;4.70;;
62123;SDS011;48110;47.532;19.078;2023-09-07T17:20:00;16.58;;;4.47;;
62123;SDS011;48110;47.532;19.078;2023-09-07T17:23:04;12.20;;;4.60;;
62123;SDS011;48110;47.532;19.078;2023-09-07T17:26:06;16.60;;;4.80;;
62123;SDS011;48110;47.532;19.078;2023-09-07T17:29:09;16.95;;;4.78;;
62123;SDS011;48110;47.532;19.078;2023-09-07T17:32:12;12.93;;;4.80;;
62123;SDS011;48110;47.532;19.078;2023-09-07T17:35:15;14.38;;;4.47;;
62123;SDS011;48110;47.532;19.078;2023-09-07T17:38:18;19.25;;;4.85;;
62123;SDS011;48110;47.532;19.078;2023-09-07T17:41:23;14.00;;;4.62;;
62123;SDS011;48110;47.532;19.078;2023-09-07T17:44:33;10.52;;;4.25;;
62123;SDS011;48110;47.532;19.078;2023-09-07T17:47:36;8.95;;;4.00;;
62123;SDS011;48110;47.532;19.078;2023-09-07T17:50:39;8.13;;;4.35;;
62123;SDS011;48110;47.532;19.078;2023-09-07T17:53:43;11.98;;;4.78;;
62123;SDS011;48110;47.532;19.078;2023-09-07T17:56:47;9.45;;;4.47;;
62123;SDS011;48110;47.532;19.078;2023-09-07T17:59:50;8.50;;;4.03;;
62123;SDS011;48110;47.532;19.078;2023-09-07T18:02:58;10.07;;;4.87;;
62123;SDS011;48110;47.532;19.078;2023-09-07T18:06:02;12.30;;;4.90;;
62123;SDS011;48110;47.532;19.078;2023-09-07T18:09:07;12.60;;;4.85;;
62123;SDS011;48110;47.532;19.078;2023-09-07T18:12:11;9.90;;;4.72;;